createdAt,value
2023-04-18T00:01:27.017Z,8.60
2023-04-18T00:03:54.140Z,8.50
2023-04-18T00:06:22.315Z,8.40
2023-04-18T00:08:49.408Z,8.40
2023-04-18T00:11:16.496Z,8.30
2023-04-18T00:13:44.483Z,8.40
2023-04-18T00:16:13.358Z,8.20
2023-04-18T00:18:40.812Z,8.10
2023-04-18T00:21:08.827Z,8.20
2023-04-18T00:23:37.279Z,8.10
2023-04-18T00:26:04.461Z,8.00
2023-04-18T00:28:31.656Z,8.00
2023-04-18T00:30:58.766Z,8.00
2023-04-18T00:33:25.868Z,7.90
2023-04-18T00:35:54.012Z,7.80
2023-04-18T00:38:21.093Z,7.80
2023-04-18T00:40:48.305Z,7.80
2023-04-18T00:43:17.117Z,7.70
2023-04-18T00:45:44.659Z,7.80
2023-04-18T00:48:11.997Z,7.80
2023-04-18T00:50:40.694Z,7.60
2023-04-18T00:53:10.780Z,7.60
2023-04-18T00:55:39.228Z,7.60
2023-04-18T00:58:06.561Z,7.70
2023-04-18T01:00:33.781Z,7.50
2023-04-18T01:03:00.998Z,7.50
2023-04-18T01:05:29.505Z,7.60
2023-04-18T01:08:01.254Z,7.60
2023-04-18T01:10:29.996Z,7.50
2023-04-18T01:13:12.215Z,7.50
2023-04-18T01:15:45.416Z,7.40
2023-04-18T01:18:13.365Z,7.40
2023-04-18T01:20:48.923Z,7.30
2023-04-18T01:23:17.755Z,7.20
2023-04-18T01:25:47.383Z,7.20
2023-04-18T01:28:15.638Z,7.10
2023-04-18T01:30:42.786Z,7.00
2023-04-18T01:33:09.972Z,6.90
2023-04-18T01:35:38.598Z,7.00
2023-04-18T01:38:05.772Z,7.00
2023-04-18T01:40:32.926Z,6.90
2023-04-18T01:43:00.152Z,6.80
2023-04-18T01:45:27.253Z,6.80
2023-04-18T01:47:54.378Z,6.80
2023-04-18T01:50:21.588Z,6.80
2023-04-18T01:52:48.841Z,6.70
2023-04-18T01:55:16.805Z,6.70
2023-04-18T01:57:44.435Z,6.70
2023-04-18T02:00:12.531Z,6.70
2023-04-18T02:02:39.725Z,6.70
2023-04-18T02:05:07.693Z,6.60
2023-04-18T02:07:34.889Z,6.80
2023-04-18T02:10:03.170Z,6.80
2023-04-18T02:12:32.165Z,6.80
2023-04-18T02:14:59.343Z,6.70
2023-04-18T02:17:26.513Z,6.70
2023-04-18T02:19:53.620Z,6.70
2023-04-18T02:22:20.723Z,6.60
2023-04-18T02:24:47.759Z,6.50
2023-04-18T02:27:14.943Z,6.50
2023-04-18T02:29:42.043Z,6.40
2023-04-18T02:32:09.384Z,6.30
2023-04-18T02:34:37.570Z,6.30
2023-04-18T02:37:04.894Z,6.30
2023-04-18T02:39:32.153Z,6.20
2023-04-18T02:41:59.469Z,6.20
2023-04-18T02:44:26.609Z,6.20
2023-04-18T02:46:53.747Z,6.20
2023-04-18T02:49:20.854Z,6.20
2023-04-18T02:51:48.055Z,6.20
2023-04-18T02:54:15.432Z,6.20
2023-04-18T02:56:43.017Z,6.20
2023-04-18T02:59:10.173Z,6.30
2023-04-18T03:01:37.366Z,6.20
2023-04-18T03:04:04.848Z,6.20
2023-04-18T03:06:32.308Z,6.20
2023-04-18T03:08:59.489Z,6.20
2023-04-18T03:11:26.618Z,6.20
2023-04-18T03:13:55.014Z,6.20
2023-04-18T03:16:22.345Z,6.20
2023-04-18T03:18:49.674Z,6.10
2023-04-18T03:21:16.850Z,6.00
2023-04-18T03:23:44.466Z,5.90
2023-04-18T03:26:13.972Z,5.80
2023-04-18T03:28:41.227Z,5.70
2023-04-18T03:31:08.326Z,5.50
2023-04-18T03:33:36.597Z,5.40
2023-04-18T03:36:03.951Z,5.20
2023-04-18T03:38:31.229Z,5.20
2023-04-18T03:40:58.343Z,5.20
2023-04-18T03:43:25.440Z,5.20
2023-04-18T03:45:54.054Z,5.20
2023-04-18T03:48:21.224Z,5.20
2023-04-18T03:50:48.325Z,5.40
2023-04-18T03:53:15.617Z,5.50
2023-04-18T03:55:43.608Z,5.60
2023-04-18T03:58:10.684Z,5.60
2023-04-18T04:00:37.799Z,5.70
2023-04-18T04:03:05.184Z,5.80
2023-04-18T04:05:32.461Z,5.70
2023-04-18T04:07:59.549Z,5.80
2023-04-18T04:10:26.763Z,5.80
2023-04-18T04:12:53.818Z,5.80
2023-04-18T04:15:20.877Z,5.80
2023-04-18T04:17:48.078Z,5.80
2023-04-18T04:20:15.217Z,5.80
2023-04-18T04:22:42.783Z,5.80
2023-04-18T04:25:10.588Z,5.80
2023-04-18T04:27:39.075Z,5.80
2023-04-18T04:30:09.132Z,5.70
2023-04-18T04:32:39.008Z,5.70
2023-04-18T04:35:08.476Z,5.70
2023-04-18T04:37:35.819Z,5.70
2023-04-18T04:40:06.437Z,5.70
2023-04-18T04:42:33.554Z,5.70
2023-04-18T04:45:01.642Z,5.70
2023-04-18T04:47:29.208Z,5.70
2023-04-18T04:49:56.317Z,5.70
2023-04-18T04:52:23.465Z,5.70
2023-04-18T04:54:52.058Z,5.70
2023-04-18T04:57:19.119Z,5.70
2023-04-18T04:59:46.216Z,5.80
2023-04-18T05:02:13.525Z,5.80
2023-04-18T05:04:40.700Z,5.80
2023-04-18T05:07:07.904Z,5.80
2023-04-18T05:09:35.163Z,5.90
2023-04-18T05:12:03.426Z,6.00
2023-04-18T05:14:31.088Z,6.00
2023-04-18T05:16:58.312Z,6.10
2023-04-18T05:19:25.619Z,6.30
2023-04-18T05:21:52.669Z,6.30
2023-04-18T05:24:19.833Z,6.30
2023-04-18T05:26:46.974Z,6.40
2023-04-18T05:29:14.278Z,6.40
2023-04-18T05:31:41.590Z,6.40
2023-04-18T05:34:08.628Z,6.40
2023-04-18T05:36:35.919Z,6.50
2023-04-18T05:39:03.456Z,6.50
2023-04-18T05:41:30.515Z,6.60
2023-04-18T05:44:16.950Z,6.60
2023-04-18T05:46:44.326Z,6.70
2023-04-18T05:49:11.567Z,6.70
2023-04-18T05:51:38.789Z,6.80
2023-04-18T05:54:05.912Z,6.90
2023-04-18T05:56:32.954Z,7.00
2023-04-18T05:59:00.233Z,7.10
2023-04-18T06:01:27.646Z,7.10
2023-04-18T06:03:55.978Z,7.00
2023-04-18T06:06:23.294Z,7.10
2023-04-18T06:08:50.415Z,7.10
2023-04-18T06:11:20.134Z,7.10
2023-04-18T06:13:47.323Z,7.10
2023-04-18T06:16:14.606Z,7.10
2023-04-18T06:18:41.751Z,7.10
2023-04-18T06:21:08.904Z,7.20
2023-04-18T06:23:36.105Z,7.10
2023-04-18T06:26:03.179Z,7.20
2023-04-18T06:28:30.327Z,7.20
2023-04-18T06:30:57.458Z,7.20
2023-04-18T06:33:24.674Z,7.20
2023-04-18T06:35:51.884Z,7.30
2023-04-18T06:38:19.041Z,7.40
2023-04-18T06:40:46.204Z,7.40
2023-04-18T06:43:13.275Z,7.70
2023-04-18T06:45:40.934Z,7.50
2023-04-18T06:48:09.147Z,7.50
2023-04-18T06:50:36.303Z,7.60
2023-04-18T06:53:03.383Z,7.50
2023-04-18T06:55:30.813Z,7.60
2023-04-18T06:57:59.351Z,7.60
2023-04-18T07:00:26.958Z,7.80
2023-04-18T07:02:54.208Z,7.70
2023-04-18T07:05:21.599Z,7.90
2023-04-18T07:07:48.879Z,7.90
2023-04-18T07:10:15.983Z,7.90
2023-04-18T07:12:43.043Z,8.00
2023-04-18T07:15:11.103Z,8.00
2023-04-18T07:17:38.302Z,8.00
2023-04-18T07:20:06.511Z,8.20
2023-04-18T07:22:33.601Z,8.20
2023-04-18T07:25:00.706Z,8.10
2023-04-18T07:27:27.773Z,8.30
2023-04-18T07:29:54.989Z,8.40
2023-04-18T07:32:22.109Z,8.30
2023-04-18T07:34:49.193Z,8.30
2023-04-18T07:37:18.704Z,8.30
2023-04-18T07:39:45.909Z,8.30
2023-04-18T07:42:12.994Z,8.30
2023-04-18T07:44:40.410Z,8.30
2023-04-18T07:47:11.736Z,8.40
2023-04-18T07:49:39.101Z,8.30
2023-04-18T07:52:06.580Z,8.40
2023-04-18T07:54:34.926Z,8.40
2023-04-18T07:57:02.030Z,8.50
2023-04-18T07:59:29.973Z,8.70
2023-04-18T08:01:57.020Z,8.70
2023-04-18T08:04:24.965Z,8.70
2023-04-18T08:06:52.873Z,8.70
2023-04-18T08:09:20.760Z,8.80
2023-04-18T08:11:48.018Z,8.90
2023-04-18T08:14:15.203Z,9.00
2023-04-18T08:16:42.280Z,9.00
2023-04-18T08:19:09.653Z,9.00
2023-04-18T08:21:36.954Z,9.00
2023-04-18T08:24:04.236Z,9.00
2023-04-18T08:26:31.297Z,9.00
2023-04-18T08:28:58.427Z,9.00
2023-04-18T08:31:25.982Z,8.90
2023-04-18T08:33:53.122Z,8.90
2023-04-18T08:36:21.358Z,9.10
2023-04-18T08:38:48.457Z,9.20
2023-04-18T08:41:22.881Z,9.40
2023-04-18T08:43:50.051Z,9.60
2023-04-18T08:46:17.459Z,9.80
2023-04-18T08:48:45.196Z,9.70
2023-04-18T08:51:12.368Z,9.80
2023-04-18T08:53:39.916Z,10.10
2023-04-18T08:56:10.713Z,10.00
2023-04-18T08:58:38.944Z,10.10
2023-04-18T09:01:07.347Z,10.30
2023-04-18T09:03:40.901Z,10.30
2023-04-18T09:06:16.157Z,10.30
2023-04-18T09:08:45.016Z,10.40
2023-04-18T09:11:38.529Z,10.30
2023-04-18T09:14:05.878Z,10.20
2023-04-18T09:16:47.619Z,10.20
2023-04-18T09:19:19.359Z,10.20
2023-04-18T09:21:47.326Z,10.30
2023-04-18T09:24:27.053Z,10.40
2023-04-18T09:26:56.995Z,10.40
2023-04-18T09:29:47.276Z,10.40
2023-04-18T09:32:27.217Z,10.40
2023-04-18T09:34:58.650Z,10.30
2023-04-18T09:37:26.551Z,10.20
2023-04-18T09:39:54.216Z,10.30
2023-04-18T09:42:22.002Z,10.30
2023-04-18T09:45:18.436Z,10.50
2023-04-18T09:47:45.983Z,10.50
2023-04-18T09:50:13.511Z,10.60
2023-04-18T09:52:46.851Z,10.80
2023-04-18T09:55:17.627Z,11.00
2023-04-18T09:57:47.793Z,11.20
2023-04-18T10:00:26.736Z,11.40
2023-04-18T10:03:04.858Z,11.60
2023-04-18T10:05:36.413Z,11.70
2023-04-18T10:08:04.229Z,12.00
2023-04-18T10:10:32.126Z,12.30
2023-04-18T10:13:02.274Z,12.40
2023-04-18T10:15:31.051Z,12.40
2023-04-18T10:18:07.074Z,12.40
2023-04-18T10:20:35.477Z,12.40
2023-04-18T10:23:37.929Z,12.40
2023-04-18T10:26:11.697Z,12.30
2023-04-18T10:28:57.430Z,12.30
2023-04-18T10:31:27.089Z,12.40
2023-04-18T10:34:05.718Z,12.60
2023-04-18T10:36:33.720Z,12.60
2023-04-18T10:39:21.683Z,12.40
2023-04-18T10:41:51.084Z,12.40
2023-04-18T10:44:23.388Z,12.50
2023-04-18T10:46:53.705Z,12.60
2023-04-18T10:49:28.313Z,12.80
2023-04-18T10:52:01.366Z,13.00
2023-04-18T10:54:40.848Z,13.20
2023-04-18T10:57:09.124Z,13.40
2023-04-18T10:59:41.913Z,13.70
2023-04-18T11:02:30.488Z,14.00
2023-04-18T11:05:06.688Z,14.20
2023-04-18T11:07:42.296Z,14.30
2023-04-18T11:10:15.895Z,14.40
2023-04-18T11:12:43.032Z,14.30
2023-04-18T11:15:14.572Z,14.50
2023-04-18T11:17:41.886Z,14.50
2023-04-18T11:20:12.952Z,14.50
2023-04-18T11:22:52.126Z,14.30
2023-04-18T11:25:25.062Z,14.10
2023-04-18T11:27:52.239Z,14.40
2023-04-18T11:30:19.584Z,14.80
2023-04-18T11:32:46.927Z,15.20
2023-04-18T11:35:15.914Z,15.40
2023-04-18T11:37:50.028Z,15.90
2023-04-18T11:40:17.225Z,16.10
2023-04-18T11:42:44.370Z,16.10
2023-04-18T11:45:15.973Z,16.00
2023-04-18T11:47:46.491Z,15.50
2023-04-18T11:50:14.380Z,15.10
2023-04-18T11:52:42.719Z,14.60
2023-04-18T11:55:22.259Z,14.50
2023-04-18T11:57:57.269Z,14.10
2023-04-18T12:00:41.006Z,13.90
2023-04-18T12:03:16.678Z,13.80
2023-04-18T12:05:45.581Z,13.80
2023-04-18T12:08:19.996Z,13.70
2023-04-18T12:10:53.321Z,13.60
2023-04-18T12:13:40.599Z,13.40
2023-04-18T12:16:08.221Z,13.20
2023-04-18T12:18:35.356Z,13.20
2023-04-18T12:21:05.935Z,13.20
2023-04-18T12:23:37.730Z,13.40
2023-04-18T12:26:18.346Z,13.30
2023-04-18T12:28:48.110Z,13.30
2023-04-18T12:31:15.325Z,13.40
2023-04-18T12:33:42.480Z,13.30
2023-04-18T12:36:10.561Z,13.40
2023-04-18T12:38:37.694Z,13.70
2023-04-18T12:41:05.564Z,13.90
2023-04-18T12:43:32.710Z,13.90
2023-04-18T12:46:00.451Z,13.80
2023-04-18T12:48:27.887Z,14.00
2023-04-18T12:50:55.029Z,14.20
2023-04-18T12:53:22.069Z,14.30
2023-04-18T12:55:49.215Z,14.20
2023-04-18T12:58:18.820Z,14.40
2023-04-18T13:00:46.304Z,14.50
2023-04-18T13:03:13.747Z,14.80
2023-04-18T13:05:41.315Z,15.00
2023-04-18T13:08:17.210Z,15.10
2023-04-18T13:10:49.322Z,15.00
2023-04-18T13:13:16.425Z,14.90
2023-04-18T13:15:43.801Z,14.90
2023-04-18T13:18:11.039Z,15.00
2023-04-18T13:20:39.774Z,15.00
2023-04-18T13:23:06.828Z,15.20
2023-04-18T13:25:33.989Z,15.10
2023-04-18T13:28:01.395Z,14.90
2023-04-18T13:30:28.642Z,14.80
2023-04-18T13:32:56.840Z,14.50
2023-04-18T13:35:24.018Z,14.30
2023-04-18T13:37:51.212Z,14.10
2023-04-18T13:40:18.418Z,14.10
2023-04-18T13:42:45.825Z,14.00
2023-04-18T13:45:12.959Z,14.10
2023-04-18T13:47:40.229Z,14.10
2023-04-18T13:50:08.312Z,14.20
2023-04-18T13:52:36.313Z,14.50
2023-04-18T13:55:04.103Z,14.70
2023-04-18T13:57:32.353Z,15.10
2023-04-18T13:59:59.610Z,15.10
2023-04-18T14:02:26.983Z,15.30
2023-04-18T14:04:55.666Z,15.60
2023-04-18T14:07:23.006Z,15.90
2023-04-18T14:09:53.327Z,15.90
2023-04-18T14:12:21.731Z,15.90
2023-04-18T14:14:48.814Z,15.90
2023-04-18T14:17:16.004Z,15.90
2023-04-18T14:19:43.076Z,15.70
2023-04-18T14:22:10.408Z,15.60
2023-04-18T14:24:37.721Z,16.40
2023-04-18T14:27:06.058Z,16.40
2023-04-18T14:29:33.220Z,16.30
2023-04-18T14:32:00.801Z,16.40
2023-04-18T14:34:27.884Z,16.10
2023-04-18T14:36:55.182Z,16.40
2023-04-18T14:39:22.308Z,16.90
2023-04-18T14:41:49.889Z,17.80
2023-04-18T14:44:17.361Z,17.80
2023-04-18T14:46:46.836Z,17.40
2023-04-18T14:49:14.129Z,17.00
2023-04-18T14:51:41.349Z,17.00
2023-04-18T14:54:09.210Z,16.80
2023-04-18T14:56:36.245Z,16.50
2023-04-18T14:59:03.900Z,16.30
2023-04-18T15:01:31.306Z,16.30
2023-04-18T15:03:59.558Z,16.40
2023-04-18T15:06:27.350Z,16.20
2023-04-18T15:08:54.516Z,16.80
2023-04-18T15:11:22.275Z,17.40
2023-04-18T15:13:50.187Z,17.90
2023-04-18T15:16:17.377Z,17.70
2023-04-18T15:18:45.092Z,17.20
2023-04-18T15:21:12.302Z,17.00
2023-04-18T15:23:39.368Z,16.70
2023-04-18T15:26:06.506Z,16.20
2023-04-18T15:28:33.678Z,15.90
2023-04-18T15:31:00.977Z,15.40
2023-04-18T15:33:28.343Z,15.30
2023-04-18T15:35:55.979Z,15.10
2023-04-18T15:38:23.118Z,15.00
2023-04-18T15:40:50.147Z,15.00
2023-04-18T15:43:17.374Z,15.00
2023-04-18T15:45:44.704Z,15.10
2023-04-18T15:48:13.286Z,15.10
2023-04-18T15:50:42.492Z,15.10
2023-04-18T15:53:09.780Z,15.10
2023-04-18T15:55:37.001Z,14.90
2023-04-18T15:58:04.136Z,15.00
2023-04-18T16:00:31.302Z,15.50
2023-04-18T16:02:58.807Z,15.80
2023-04-18T16:05:26.049Z,15.60
2023-04-18T16:07:53.951Z,15.60
2023-04-18T16:10:21.111Z,15.70
2023-04-18T16:12:48.268Z,15.80
2023-04-18T16:15:15.511Z,15.80
2023-04-18T16:17:42.647Z,15.90
2023-04-18T16:20:10.151Z,15.90
2023-04-18T16:22:37.771Z,16.10
2023-04-18T16:25:05.585Z,16.20
2023-04-18T16:27:33.487Z,16.30
2023-04-18T16:30:00.763Z,16.60
2023-04-18T16:32:27.812Z,16.60
2023-04-18T16:34:55.218Z,16.70
2023-04-18T16:37:22.441Z,16.80
2023-04-18T16:39:49.557Z,16.70
2023-04-18T16:42:18.207Z,16.40
2023-04-18T16:44:45.550Z,16.00
2023-04-18T16:47:12.634Z,15.80
2023-04-18T16:49:39.833Z,15.10
2023-04-18T16:52:07.034Z,14.70
2023-04-18T16:54:34.226Z,14.20
2023-04-18T16:57:01.787Z,13.80
2023-04-18T16:59:28.963Z,13.60
2023-04-18T17:01:56.165Z,13.70
2023-04-18T17:04:23.564Z,14.20
2023-04-18T17:06:52.066Z,14.60
2023-04-18T17:09:19.829Z,14.70
2023-04-18T17:11:47.130Z,14.80
2023-04-18T17:14:14.642Z,14.70
2023-04-18T17:16:42.824Z,14.50
2023-04-18T17:19:10.784Z,14.10
2023-04-18T17:21:38.521Z,13.80
2023-04-18T17:24:07.081Z,13.60
2023-04-18T17:26:35.198Z,13.40
2023-04-18T17:29:04.454Z,13.10
2023-04-18T17:31:32.558Z,12.90
2023-04-18T17:34:00.457Z,12.80
2023-04-18T17:36:27.952Z,12.80
2023-04-18T17:38:55.896Z,12.80
2023-04-18T17:41:23.287Z,12.70
2023-04-18T17:43:53.487Z,12.60
2023-04-18T17:46:20.677Z,12.60
2023-04-18T17:48:47.757Z,12.50
2023-04-18T17:51:16.577Z,12.40
2023-04-18T17:53:43.687Z,12.30
2023-04-18T17:56:11.080Z,12.30
2023-04-18T17:58:38.354Z,12.20
2023-04-18T18:01:16.847Z,12.10
2023-04-18T18:03:45.085Z,12.10
2023-04-18T18:06:13.308Z,12.00
2023-04-18T18:08:42.240Z,11.90
2023-04-18T18:11:10.900Z,11.80
2023-04-18T18:13:41.156Z,11.70
2023-04-18T18:16:12.707Z,11.70
2023-04-18T18:18:40.122Z,11.80
2023-04-18T18:21:07.356Z,11.70
2023-04-18T18:23:34.465Z,11.50
2023-04-18T18:26:01.604Z,11.60
2023-04-18T18:28:28.938Z,11.60
2023-04-18T18:30:56.118Z,11.50
2023-04-18T18:33:23.401Z,11.50
2023-04-18T18:35:51.042Z,11.40
2023-04-18T18:38:18.282Z,11.30
2023-04-18T18:40:45.824Z,11.30
2023-04-18T18:43:14.051Z,11.20
2023-04-18T18:45:41.200Z,11.10
2023-04-18T18:48:09.242Z,11.10
2023-04-18T18:50:36.351Z,11.10
2023-04-18T18:53:03.490Z,11.10
2023-04-18T18:55:30.752Z,11.10
2023-04-18T18:57:57.879Z,11.10
2023-04-18T19:00:25.245Z,11.10
2023-04-18T19:02:52.898Z,11.00
2023-04-18T19:05:21.187Z,11.00
2023-04-18T19:07:48.395Z,11.10
2023-04-18T19:10:15.493Z,11.10
2023-04-18T19:12:42.585Z,11.10
2023-04-18T19:15:12.240Z,11.00
2023-04-18T19:17:39.598Z,10.90
2023-04-18T19:20:08.176Z,11.00
2023-04-18T19:22:35.277Z,11.00
2023-04-18T19:25:03.107Z,11.00
2023-04-18T19:27:30.266Z,10.90
2023-04-18T19:29:57.335Z,10.90
2023-04-18T19:32:24.539Z,10.90
2023-04-18T19:34:51.778Z,10.90
2023-04-18T19:37:18.896Z,10.90
2023-04-18T19:39:46.124Z,10.90
2023-04-18T19:42:14.622Z,10.90
2023-04-18T19:44:41.884Z,10.80
2023-04-18T19:47:09.000Z,10.80
2023-04-18T19:49:36.348Z,10.80
2023-04-18T19:52:03.496Z,10.70
2023-04-18T19:54:33.663Z,10.70
2023-04-18T19:57:01.525Z,10.70
2023-04-18T19:59:28.661Z,10.60
2023-04-18T20:01:57.217Z,10.50
2023-04-18T20:04:26.079Z,10.50
2023-04-18T20:06:56.617Z,10.50
2023-04-18T20:09:23.811Z,10.50
2023-04-18T20:11:51.208Z,10.40
2023-04-18T20:14:18.390Z,10.40
2023-04-18T20:16:49.158Z,10.30
2023-04-18T20:19:17.894Z,10.30
2023-04-18T20:21:45.327Z,10.30
2023-04-18T20:24:13.747Z,10.30
2023-04-18T20:26:40.861Z,10.30
2023-04-18T20:29:08.230Z,10.30
2023-04-18T20:31:37.469Z,10.20
2023-04-18T20:34:04.584Z,10.20
2023-04-18T20:36:32.069Z,10.20
2023-04-18T20:39:02.399Z,10.10
2023-04-18T20:41:31.121Z,10.10
2023-04-18T20:43:58.725Z,10.10
2023-04-18T20:46:26.143Z,10.10
2023-04-18T20:48:53.274Z,10.10
2023-04-18T20:51:20.353Z,10.20
2023-04-18T20:53:49.738Z,10.20
2023-04-18T20:56:17.083Z,10.10
2023-04-18T20:58:44.157Z,10.20
2023-04-18T21:01:11.496Z,10.20
2023-04-18T21:03:38.861Z,10.20
2023-04-18T21:06:06.148Z,10.10
2023-04-18T21:08:35.167Z,10.10
2023-04-18T21:11:02.345Z,10.10
2023-04-18T21:13:31.744Z,10.00
2023-04-18T21:15:58.888Z,9.90
2023-04-18T21:18:26.178Z,10.00
2023-04-18T21:20:53.276Z,10.10
2023-04-18T21:23:34.457Z,10.10
2023-04-18T21:26:17.972Z,10.10
2023-04-18T21:29:06.856Z,10.10
2023-04-18T21:31:35.721Z,10.10
2023-04-18T21:34:05.292Z,10.10
2023-04-18T21:36:32.592Z,10.00
2023-04-18T21:39:01.063Z,9.90
2023-04-18T21:41:28.541Z,9.80
2023-04-18T21:43:55.784Z,9.80
2023-04-18T21:46:22.949Z,9.60
2023-04-18T21:48:50.229Z,9.60
2023-04-18T21:51:18.100Z,9.50
2023-04-18T21:53:45.364Z,9.50
2023-04-18T21:56:12.571Z,9.40
2023-04-18T21:58:39.645Z,9.30
2023-04-18T22:01:06.748Z,9.30
2023-04-18T22:03:34.640Z,9.30
2023-04-18T22:06:02.154Z,9.30
2023-04-18T22:08:29.601Z,9.30
2023-04-18T22:10:59.091Z,9.30
2023-04-18T22:13:34.529Z,9.30
2023-04-18T22:16:05.702Z,9.20
2023-04-18T22:18:34.061Z,9.30
2023-04-18T22:21:04.463Z,9.30
2023-04-18T22:23:31.825Z,9.20
2023-04-18T22:25:58.913Z,9.10
2023-04-18T22:28:28.065Z,9.10
2023-04-18T22:30:55.454Z,9.00
2023-04-18T22:33:22.626Z,9.00
2023-04-18T22:35:49.749Z,9.00
2023-04-18T22:38:16.977Z,9.00
2023-04-18T22:40:44.078Z,9.10
2023-04-18T22:43:11.241Z,9.10
2023-04-18T22:45:38.352Z,9.10
2023-04-18T22:48:06.081Z,9.10
2023-04-18T22:50:33.250Z,9.10
2023-04-18T22:53:00.376Z,9.10
2023-04-18T22:55:27.410Z,9.10
2023-04-18T22:57:54.474Z,9.10
2023-04-18T23:00:23.851Z,9.10
2023-04-18T23:02:52.785Z,9.10
2023-04-18T23:05:20.117Z,9.20
2023-04-18T23:07:47.220Z,9.20
2023-04-18T23:10:14.274Z,9.20
2023-04-18T23:12:41.291Z,9.20
2023-04-18T23:15:09.170Z,9.20
2023-04-18T23:17:36.238Z,9.20
2023-04-18T23:20:07.352Z,9.20
2023-04-18T23:22:34.540Z,9.20
2023-04-18T23:25:01.575Z,9.30
2023-04-18T23:27:28.614Z,9.20
2023-04-18T23:29:55.793Z,9.30
2023-04-18T23:32:23.147Z,9.30
2023-04-18T23:34:50.295Z,9.30
2023-04-18T23:37:17.414Z,9.30
2023-04-18T23:39:44.449Z,9.30
2023-04-18T23:42:11.530Z,9.30
2023-04-18T23:44:38.611Z,9.30
2023-04-18T23:47:05.942Z,9.20
2023-04-18T23:49:33.023Z,9.20
2023-04-18T23:52:00.314Z,9.30
2023-04-18T23:54:27.397Z,9.30
2023-04-18T23:56:56.772Z,9.30
2023-04-18T23:59:23.950Z,9.30
